sensor_id;sensor_type;location;lat;lon;timestamp;temperature;humidity
13598;DHT22;38563;54.258;12.574;2022-11-20T00:01:05;1.00;99.90
13598;DHT22;38563;54.258;12.574;2022-11-20T00:03:32;1.00;99.90
13598;DHT22;38563;54.258;12.574;2022-11-20T00:06:00;1.00;99.90
13598;DHT22;38563;54.258;12.574;2022-11-20T00:08:26;1.00;99.90
13598;DHT22;38563;54.258;12.574;2022-11-20T00:10:53;1.00;99.90
13598;DHT22;38563;54.258;12.574;2022-11-20T00:13:20;1.00;99.90
13598;DHT22;38563;54.258;12.574;2022-11-20T00:15:46;1.00;99.90
13598;DHT22;38563;54.258;12.574;2022-11-20T00:18:14;0.90;99.90
13598;DHT22;38563;54.258;12.574;2022-11-20T00:20:41;0.90;99.90
13598;DHT22;38563;54.258;12.574;2022-11-20T00:23:08;0.90;99.90
13598;DHT22;38563;54.258;12.574;2022-11-20T00:25:34;0.90;99.90
13598;DHT22;38563;54.258;12.574;2022-11-20T00:28:01;0.90;99.90
13598;DHT22;38563;54.258;12.574;2022-11-20T00:30:28;0.90;99.90
13598;DHT22;38563;54.258;12.574;2022-11-20T00:32:56;0.90;99.90
13598;DHT22;38563;54.258;12.574;2022-11-20T00:35:24;0.90;99.90
13598;DHT22;38563;54.258;12.574;2022-11-20T00:37:51;0.90;99.90
13598;DHT22;38563;54.258;12.574;2022-11-20T00:40:17;0.90;99.90
13598;DHT22;38563;54.258;12.574;2022-11-20T00:42:44;0.90;99.90
13598;DHT22;38563;54.258;12.574;2022-11-20T00:45:11;0.90;99.90
13598;DHT22;38563;54.258;12.574;2022-11-20T00:47:40;0.90;99.90
13598;DHT22;38563;54.258;12.574;2022-11-20T00:50:14;0.90;99.90
13598;DHT22;38563;54.258;12.574;2022-11-20T00:52:42;0.90;99.90
13598;DHT22;38563;54.258;12.574;2022-11-20T00:55:09;0.90;99.90
13598;DHT22;38563;54.258;12.574;2022-11-20T00:57:36;0.90;99.90
13598;DHT22;38563;54.258;12.574;2022-11-20T01:00:03;0.90;99.90
13598;DHT22;38563;54.258;12.574;2022-11-20T01:02:30;0.90;99.90
13598;DHT22;38563;54.258;12.574;2022-11-20T01:04:57;0.90;99.90
13598;DHT22;38563;54.258;12.574;2022-11-20T01:07:24;0.90;99.90
13598;DHT22;38563;54.258;12.574;2022-11-20T01:09:52;0.90;99.90
13598;DHT22;38563;54.258;12.574;2022-11-20T01:12:18;0.90;99.90
13598;DHT22;38563;54.258;12.574;2022-11-20T01:14:45;1.00;99.90
13598;DHT22;38563;54.258;12.574;2022-11-20T01:17:13;1.00;99.90
13598;DHT22;38563;54.258;12.574;2022-11-20T01:19:40;1.00;99.90
13598;DHT22;38563;54.258;12.574;2022-11-20T01:22:06;1.00;99.90
13598;DHT22;38563;54.258;12.574;2022-11-20T01:24:33;1.00;99.90
13598;DHT22;38563;54.258;12.574;2022-11-20T01:27:01;1.10;99.90
13598;DHT22;38563;54.258;12.574;2022-11-20T01:29:28;1.10;99.90
13598;DHT22;38563;54.258;12.574;2022-11-20T01:31:54;1.10;99.90
13598;DHT22;38563;54.258;12.574;2022-11-20T01:34:21;1.10;99.90
13598;DHT22;38563;54.258;12.574;2022-11-20T01:36:49;1.10;99.90
13598;DHT22;38563;54.258;12.574;2022-11-20T01:39:18;1.10;99.90
13598;DHT22;38563;54.258;12.574;2022-11-20T01:41:46;1.10;99.90
13598;DHT22;38563;54.258;12.574;2022-11-20T01:44:59;1.10;99.90
13598;DHT22;38563;54.258;12.574;2022-11-20T01:47:31;1.20;99.90
13598;DHT22;38563;54.258;12.574;2022-11-20T01:50:03;1.30;99.90
13598;DHT22;38563;54.258;12.574;2022-11-20T01:52:34;1.30;99.90
13598;DHT22;38563;54.258;12.574;2022-11-20T01:55:05;1.30;99.90
13598;DHT22;38563;54.258;12.574;2022-11-20T01:57:34;1.30;99.90
13598;DHT22;38563;54.258;12.574;2022-11-20T02:00:05;1.30;99.90
13598;DHT22;38563;54.258;12.574;2022-11-20T02:02:39;1.20;99.90
13598;DHT22;38563;54.258;12.574;2022-11-20T02:05:14;1.20;99.90
13598;DHT22;38563;54.258;12.574;2022-11-20T02:07:43;1.20;99.90
13598;DHT22;38563;54.258;12.574;2022-11-20T02:10:11;1.20;99.90
13598;DHT22;38563;54.258;12.574;2022-11-20T02:12:38;1.20;99.90
13598;DHT22;38563;54.258;12.574;2022-11-20T02:15:23;1.10;99.90
13598;DHT22;38563;54.258;12.574;2022-11-20T02:17:50;1.10;99.90
13598;DHT22;38563;54.258;12.574;2022-11-20T02:20:17;1.20;99.90
13598;DHT22;38563;54.258;12.574;2022-11-20T02:22:48;1.10;99.90
13598;DHT22;38563;54.258;12.574;2022-11-20T02:25:20;1.00;99.90
13598;DHT22;38563;54.258;12.574;2022-11-20T02:27:47;1.00;99.90
13598;DHT22;38563;54.258;12.574;2022-11-20T02:30:14;1.10;99.90
13598;DHT22;38563;54.258;12.574;2022-11-20T02:32:41;1.10;99.90
13598;DHT22;38563;54.258;12.574;2022-11-20T02:35:09;1.00;99.90
13598;DHT22;38563;54.258;12.574;2022-11-20T02:37:39;1.00;99.90
13598;DHT22;38563;54.258;12.574;2022-11-20T02:40:07;0.90;99.90
13598;DHT22;38563;54.258;12.574;2022-11-20T02:42:36;0.90;99.90
13598;DHT22;38563;54.258;12.574;2022-11-20T02:45:03;0.90;99.90
13598;DHT22;38563;54.258;12.574;2022-11-20T02:47:30;0.80;99.90
13598;DHT22;38563;54.258;12.574;2022-11-20T02:49:57;0.80;99.90
13598;DHT22;38563;54.258;12.574;2022-11-20T02:52:24;0.90;99.90
13598;DHT22;38563;54.258;12.574;2022-11-20T02:54:50;1.00;99.90
13598;DHT22;38563;54.258;12.574;2022-11-20T02:57:17;1.00;99.90
13598;DHT22;38563;54.258;12.574;2022-11-20T02:59:45;1.10;99.90
13598;DHT22;38563;54.258;12.574;2022-11-20T03:02:12;1.00;99.90
13598;DHT22;38563;54.258;12.574;2022-11-20T03:04:38;1.00;99.90
13598;DHT22;38563;54.258;12.574;2022-11-20T03:07:05;1.00;99.90
13598;DHT22;38563;54.258;12.574;2022-11-20T03:09:32;1.00;99.90
13598;DHT22;38563;54.258;12.574;2022-11-20T03:11:58;1.00;99.90
13598;DHT22;38563;54.258;12.574;2022-11-20T03:14:25;1.00;99.90
13598;DHT22;38563;54.258;12.574;2022-11-20T03:16:53;0.90;99.90
13598;DHT22;38563;54.258;12.574;2022-11-20T03:19:19;1.00;99.90
13598;DHT22;38563;54.258;12.574;2022-11-20T03:21:46;1.00;99.90
13598;DHT22;38563;54.258;12.574;2022-11-20T03:24:13;1.00;99.90
13598;DHT22;38563;54.258;12.574;2022-11-20T03:26:40;1.00;99.90
13598;DHT22;38563;54.258;12.574;2022-11-20T03:29:08;1.00;99.90
13598;DHT22;38563;54.258;12.574;2022-11-20T03:31:36;1.00;99.90
13598;DHT22;38563;54.258;12.574;2022-11-20T03:34:04;1.00;99.90
13598;DHT22;38563;54.258;12.574;2022-11-20T03:36:31;1.00;99.90
13598;DHT22;38563;54.258;12.574;2022-11-20T03:38:58;1.00;99.90
13598;DHT22;38563;54.258;12.574;2022-11-20T03:41:27;0.90;99.90
13598;DHT22;38563;54.258;12.574;2022-11-20T03:43:56;1.00;99.90
13598;DHT22;38563;54.258;12.574;2022-11-20T03:46:23;1.00;99.90
13598;DHT22;38563;54.258;12.574;2022-11-20T03:48:50;1.00;99.90
13598;DHT22;38563;54.258;12.574;2022-11-20T03:51:20;1.00;99.90
13598;DHT22;38563;54.258;12.574;2022-11-20T03:53:49;1.00;99.90
13598;DHT22;38563;54.258;12.574;2022-11-20T03:56:17;1.00;99.90
13598;DHT22;38563;54.258;12.574;2022-11-20T03:58:44;1.00;99.90
13598;DHT22;38563;54.258;12.574;2022-11-20T04:01:12;1.00;99.90
13598;DHT22;38563;54.258;12.574;2022-11-20T04:03:41;1.00;99.90
13598;DHT22;38563;54.258;12.574;2022-11-20T04:06:11;1.10;99.90
13598;DHT22;38563;54.258;12.574;2022-11-20T04:08:40;1.00;99.90
13598;DHT22;38563;54.258;12.574;2022-11-20T04:11:11;0.90;99.90
13598;DHT22;38563;54.258;12.574;2022-11-20T04:13:38;0.90;99.90
13598;DHT22;38563;54.258;12.574;2022-11-20T04:16:05;0.90;99.90
13598;DHT22;38563;54.258;12.574;2022-11-20T04:18:32;0.90;99.90
13598;DHT22;38563;54.258;12.574;2022-11-20T04:20:59;0.90;99.90
13598;DHT22;38563;54.258;12.574;2022-11-20T04:23:26;1.00;99.90
13598;DHT22;38563;54.258;12.574;2022-11-20T04:25:59;1.00;99.90
13598;DHT22;38563;54.258;12.574;2022-11-20T04:28:26;1.00;99.90
13598;DHT22;38563;54.258;12.574;2022-11-20T04:30:53;1.00;99.90
13598;DHT22;38563;54.258;12.574;2022-11-20T04:33:20;1.00;99.90
13598;DHT22;38563;54.258;12.574;2022-11-20T04:35:47;1.00;99.90
13598;DHT22;38563;54.258;12.574;2022-11-20T04:38:14;1.00;99.90
13598;DHT22;38563;54.258;12.574;2022-11-20T04:40:40;1.00;99.90
13598;DHT22;38563;54.258;12.574;2022-11-20T04:43:08;1.00;99.90
13598;DHT22;38563;54.258;12.574;2022-11-20T04:45:35;1.00;99.90
13598;DHT22;38563;54.258;12.574;2022-11-20T04:48:02;1.00;99.90
13598;DHT22;38563;54.258;12.574;2022-11-20T04:50:28;1.00;99.90
13598;DHT22;38563;54.258;12.574;2022-11-20T04:52:55;1.00;99.90
13598;DHT22;38563;54.258;12.574;2022-11-20T04:55:21;1.00;99.90
13598;DHT22;38563;54.258;12.574;2022-11-20T04:57:49;1.00;99.90
13598;DHT22;38563;54.258;12.574;2022-11-20T05:00:18;1.00;99.90
13598;DHT22;38563;54.258;12.574;2022-11-20T05:02:45;1.00;99.90
13598;DHT22;38563;54.258;12.574;2022-11-20T05:05:11;1.00;99.90
13598;DHT22;38563;54.258;12.574;2022-11-20T05:07:38;1.00;99.90
13598;DHT22;38563;54.258;12.574;2022-11-20T05:10:06;1.00;99.90
13598;DHT22;38563;54.258;12.574;2022-11-20T05:12:32;1.00;99.90
13598;DHT22;38563;54.258;12.574;2022-11-20T05:14:59;1.00;99.90
13598;DHT22;38563;54.258;12.574;2022-11-20T05:17:27;1.00;99.90
13598;DHT22;38563;54.258;12.574;2022-11-20T05:19:54;1.00;99.90
13598;DHT22;38563;54.258;12.574;2022-11-20T05:22:20;0.90;99.90
13598;DHT22;38563;54.258;12.574;2022-11-20T05:24:47;0.90;99.90
13598;DHT22;38563;54.258;12.574;2022-11-20T05:27:14;0.90;99.90
13598;DHT22;38563;54.258;12.574;2022-11-20T05:29:40;1.00;99.90
13598;DHT22;38563;54.258;12.574;2022-11-20T05:32:07;1.10;99.90
13598;DHT22;38563;54.258;12.574;2022-11-20T05:34:36;1.10;99.90
13598;DHT22;38563;54.258;12.574;2022-11-20T05:37:03;1.10;99.90
13598;DHT22;38563;54.258;12.574;2022-11-20T05:39:29;1.10;99.90
13598;DHT22;38563;54.258;12.574;2022-11-20T05:41:56;1.10;99.90
13598;DHT22;38563;54.258;12.574;2022-11-20T05:44:37;1.10;99.90
13598;DHT22;38563;54.258;12.574;2022-11-20T05:47:03;1.10;99.90
13598;DHT22;38563;54.258;12.574;2022-11-20T05:49:30;1.10;99.90
13598;DHT22;38563;54.258;12.574;2022-11-20T05:51:58;1.10;99.90
13598;DHT22;38563;54.258;12.574;2022-11-20T05:54:25;1.00;99.90
13598;DHT22;38563;54.258;12.574;2022-11-20T05:56:51;1.00;99.90
13598;DHT22;38563;54.258;12.574;2022-11-20T05:59:18;1.10;99.90
13598;DHT22;38563;54.258;12.574;2022-11-20T06:01:45;1.10;99.90
13598;DHT22;38563;54.258;12.574;2022-11-20T06:04:11;1.10;99.90
13598;DHT22;38563;54.258;12.574;2022-11-20T06:06:38;1.10;99.90
13598;DHT22;38563;54.258;12.574;2022-11-20T06:09:06;1.10;99.90
13598;DHT22;38563;54.258;12.574;2022-11-20T06:11:33;1.10;99.90
13598;DHT22;38563;54.258;12.574;2022-11-20T06:13:59;1.00;99.90
13598;DHT22;38563;54.258;12.574;2022-11-20T06:16:26;1.00;99.90
13598;DHT22;38563;54.258;12.574;2022-11-20T06:18:53;1.00;99.90
13598;DHT22;38563;54.258;12.574;2022-11-20T06:21:21;1.00;99.90
13598;DHT22;38563;54.258;12.574;2022-11-20T06:23:48;1.00;99.90
13598;DHT22;38563;54.258;12.574;2022-11-20T06:26:18;1.00;99.90
13598;DHT22;38563;54.258;12.574;2022-11-20T06:28:45;1.10;99.90
13598;DHT22;38563;54.258;12.574;2022-11-20T06:31:14;1.10;99.90
13598;DHT22;38563;54.258;12.574;2022-11-20T06:33:41;1.10;99.90
13598;DHT22;38563;54.258;12.574;2022-11-20T06:36:09;1.10;99.90
13598;DHT22;38563;54.258;12.574;2022-11-20T06:38:37;1.10;99.90
13598;DHT22;38563;54.258;12.574;2022-11-20T06:41:04;1.00;99.90
13598;DHT22;38563;54.258;12.574;2022-11-20T06:43:32;1.00;99.90
13598;DHT22;38563;54.258;12.574;2022-11-20T06:45:59;0.90;99.90
13598;DHT22;38563;54.258;12.574;2022-11-20T06:48:26;0.90;99.90
13598;DHT22;38563;54.258;12.574;2022-11-20T06:50:53;0.90;99.90
13598;DHT22;38563;54.258;12.574;2022-11-20T06:53:21;0.90;99.90
13598;DHT22;38563;54.258;12.574;2022-11-20T06:55:48;0.90;99.90
13598;DHT22;38563;54.258;12.574;2022-11-20T06:58:16;0.90;99.90
13598;DHT22;38563;54.258;12.574;2022-11-20T07:00:44;0.90;99.90
13598;DHT22;38563;54.258;12.574;2022-11-20T07:03:12;0.90;99.90
13598;DHT22;38563;54.258;12.574;2022-11-20T07:05:39;1.00;99.90
13598;DHT22;38563;54.258;12.574;2022-11-20T07:08:06;0.90;99.90
13598;DHT22;38563;54.258;12.574;2022-11-20T07:10:33;0.90;99.90
13598;DHT22;38563;54.258;12.574;2022-11-20T07:13:00;0.90;99.90
13598;DHT22;38563;54.258;12.574;2022-11-20T07:15:27;0.90;99.90
13598;DHT22;38563;54.258;12.574;2022-11-20T07:17:55;0.90;99.90
13598;DHT22;38563;54.258;12.574;2022-11-20T07:20:24;0.90;99.90
13598;DHT22;38563;54.258;12.574;2022-11-20T07:22:53;0.90;99.90
13598;DHT22;38563;54.258;12.574;2022-11-20T07:25:20;0.90;99.90
13598;DHT22;38563;54.258;12.574;2022-11-20T07:27:46;0.90;99.90
13598;DHT22;38563;54.258;12.574;2022-11-20T07:30:14;0.90;99.90
13598;DHT22;38563;54.258;12.574;2022-11-20T07:32:40;0.90;99.90
13598;DHT22;38563;54.258;12.574;2022-11-20T07:35:08;0.90;99.90
13598;DHT22;38563;54.258;12.574;2022-11-20T07:37:35;0.90;99.90
13598;DHT22;38563;54.258;12.574;2022-11-20T07:40:02;0.90;99.90
13598;DHT22;38563;54.258;12.574;2022-11-20T07:42:29;0.80;99.90
13598;DHT22;38563;54.258;12.574;2022-11-20T07:44:56;0.80;99.90
13598;DHT22;38563;54.258;12.574;2022-11-20T07:47:22;0.80;99.90
13598;DHT22;38563;54.258;12.574;2022-11-20T07:49:50;0.80;99.90
13598;DHT22;38563;54.258;12.574;2022-11-20T07:52:18;0.80;99.90
13598;DHT22;38563;54.258;12.574;2022-11-20T07:54:45;0.80;99.90
13598;DHT22;38563;54.258;12.574;2022-11-20T07:57:11;0.90;99.90
13598;DHT22;38563;54.258;12.574;2022-11-20T07:59:38;0.90;99.90
13598;DHT22;38563;54.258;12.574;2022-11-20T08:02:05;0.90;99.90
13598;DHT22;38563;54.258;12.574;2022-11-20T08:04:32;0.90;99.90
13598;DHT22;38563;54.258;12.574;2022-11-20T08:06:58;0.90;99.90
13598;DHT22;38563;54.258;12.574;2022-11-20T08:09:26;0.90;99.90
13598;DHT22;38563;54.258;12.574;2022-11-20T08:11:54;0.90;99.90
13598;DHT22;38563;54.258;12.574;2022-11-20T08:14:38;1.00;99.90
13598;DHT22;38563;54.258;12.574;2022-11-20T08:17:05;1.00;99.90
13598;DHT22;38563;54.258;12.574;2022-11-20T08:19:31;1.00;99.90
13598;DHT22;38563;54.258;12.574;2022-11-20T08:21:58;1.00;99.90
13598;DHT22;38563;54.258;12.574;2022-11-20T08:24:26;1.00;99.90
13598;DHT22;38563;54.258;12.574;2022-11-20T08:26:53;1.00;99.90
13598;DHT22;38563;54.258;12.574;2022-11-20T08:29:19;1.00;99.90
13598;DHT22;38563;54.258;12.574;2022-11-20T08:31:46;1.00;99.90
13598;DHT22;38563;54.258;12.574;2022-11-20T08:34:13;1.00;99.90
13598;DHT22;38563;54.258;12.574;2022-11-20T08:36:40;0.90;99.90
13598;DHT22;38563;54.258;12.574;2022-11-20T08:39:07;0.90;99.90
13598;DHT22;38563;54.258;12.574;2022-11-20T08:41:35;0.90;99.90
13598;DHT22;38563;54.258;12.574;2022-11-20T08:44:03;0.90;99.90
13598;DHT22;38563;54.258;12.574;2022-11-20T08:46:32;1.00;99.90
13598;DHT22;38563;54.258;12.574;2022-11-20T08:49:00;1.00;99.90
13598;DHT22;38563;54.258;12.574;2022-11-20T08:51:27;1.10;99.90
13598;DHT22;38563;54.258;12.574;2022-11-20T08:53:54;1.20;99.90
13598;DHT22;38563;54.258;12.574;2022-11-20T08:56:21;1.30;99.90
13598;DHT22;38563;54.258;12.574;2022-11-20T08:58:49;1.40;99.90
13598;DHT22;38563;54.258;12.574;2022-11-20T09:01:17;1.50;99.90
13598;DHT22;38563;54.258;12.574;2022-11-20T09:03:43;1.50;99.90
13598;DHT22;38563;54.258;12.574;2022-11-20T09:06:10;1.60;99.90
13598;DHT22;38563;54.258;12.574;2022-11-20T09:08:37;1.70;99.90
13598;DHT22;38563;54.258;12.574;2022-11-20T09:11:04;1.70;99.90
13598;DHT22;38563;54.258;12.574;2022-11-20T09:13:33;1.80;99.90
13598;DHT22;38563;54.258;12.574;2022-11-20T09:16:03;1.80;99.90
13598;DHT22;38563;54.258;12.574;2022-11-20T09:18:31;1.80;99.90
13598;DHT22;38563;54.258;12.574;2022-11-20T09:20:59;1.80;99.90
13598;DHT22;38563;54.258;12.574;2022-11-20T09:23:25;1.90;99.90
13598;DHT22;38563;54.258;12.574;2022-11-20T09:25:52;1.90;99.90
13598;DHT22;38563;54.258;12.574;2022-11-20T09:28:21;1.90;99.90
13598;DHT22;38563;54.258;12.574;2022-11-20T09:30:48;1.90;99.90
13598;DHT22;38563;54.258;12.574;2022-11-20T09:33:16;1.90;99.90
13598;DHT22;38563;54.258;12.574;2022-11-20T09:35:43;1.90;99.90
13598;DHT22;38563;54.258;12.574;2022-11-20T09:38:10;1.80;99.90
13598;DHT22;38563;54.258;12.574;2022-11-20T09:40:40;1.80;99.90
13598;DHT22;38563;54.258;12.574;2022-11-20T09:43:14;1.80;99.90
13598;DHT22;38563;54.258;12.574;2022-11-20T09:45:53;1.80;99.90
13598;DHT22;38563;54.258;12.574;2022-11-20T09:48:45;1.80;99.90
13598;DHT22;38563;54.258;12.574;2022-11-20T09:51:23;1.80;99.90
13598;DHT22;38563;54.258;12.574;2022-11-20T09:54:02;1.80;99.90
13598;DHT22;38563;54.258;12.574;2022-11-20T09:56:30;1.80;99.90
13598;DHT22;38563;54.258;12.574;2022-11-20T09:58:59;1.70;99.90
13598;DHT22;38563;54.258;12.574;2022-11-20T10:01:31;1.70;99.90
13598;DHT22;38563;54.258;12.574;2022-11-20T10:04:03;1.60;99.90
13598;DHT22;38563;54.258;12.574;2022-11-20T10:06:31;1.40;99.90
13598;DHT22;38563;54.258;12.574;2022-11-20T10:09:06;1.30;99.90
13598;DHT22;38563;54.258;12.574;2022-11-20T10:11:48;1.30;99.90
13598;DHT22;38563;54.258;12.574;2022-11-20T10:14:26;1.20;99.90
13598;DHT22;38563;54.258;12.574;2022-11-20T10:17:01;1.20;99.90
13598;DHT22;38563;54.258;12.574;2022-11-20T10:19:41;1.10;99.90
13598;DHT22;38563;54.258;12.574;2022-11-20T10:24:44;1.10;99.90
13598;DHT22;38563;54.258;12.574;2022-11-20T10:27:36;1.10;99.90
13598;DHT22;38563;54.258;12.574;2022-11-20T10:30:09;1.10;99.90
13598;DHT22;38563;54.258;12.574;2022-11-20T10:32:39;1.10;99.90
13598;DHT22;38563;54.258;12.574;2022-11-20T10:35:18;1.20;99.90
13598;DHT22;38563;54.258;12.574;2022-11-20T10:37:49;1.20;99.90
13598;DHT22;38563;54.258;12.574;2022-11-20T10:40:23;1.30;99.90
13598;DHT22;38563;54.258;12.574;2022-11-20T10:42:55;1.40;99.90
13598;DHT22;38563;54.258;12.574;2022-11-20T10:45:36;1.50;99.90
13598;DHT22;38563;54.258;12.574;2022-11-20T10:48:14;1.60;99.90
13598;DHT22;38563;54.258;12.574;2022-11-20T10:53:51;1.70;99.90
13598;DHT22;38563;54.258;12.574;2022-11-20T10:56:24;1.70;99.90
13598;DHT22;38563;54.258;12.574;2022-11-20T10:59:04;1.80;99.90
13598;DHT22;38563;54.258;12.574;2022-11-20T11:01:40;1.90;99.90
13598;DHT22;38563;54.258;12.574;2022-11-20T11:04:22;1.90;99.90
13598;DHT22;38563;54.258;12.574;2022-11-20T11:06:52;2.10;99.90
13598;DHT22;38563;54.258;12.574;2022-11-20T11:09:26;2.10;99.90
13598;DHT22;38563;54.258;12.574;2022-11-20T11:11:57;2.20;99.90
13598;DHT22;38563;54.258;12.574;2022-11-20T11:14:23;2.40;99.90
13598;DHT22;38563;54.258;12.574;2022-11-20T11:16:52;2.40;99.90
13598;DHT22;38563;54.258;12.574;2022-11-20T11:19:19;2.50;99.90
13598;DHT22;38563;54.258;12.574;2022-11-20T11:21:47;2.60;99.90
13598;DHT22;38563;54.258;12.574;2022-11-20T11:24:21;2.60;99.90
13598;DHT22;38563;54.258;12.574;2022-11-20T11:26:57;2.60;99.90
13598;DHT22;38563;54.258;12.574;2022-11-20T11:29:24;2.70;99.90
13598;DHT22;38563;54.258;12.574;2022-11-20T11:32:03;2.70;99.90
13598;DHT22;38563;54.258;12.574;2022-11-20T11:34:30;2.70;99.90
13598;DHT22;38563;54.258;12.574;2022-11-20T11:36:58;2.70;99.90
13598;DHT22;38563;54.258;12.574;2022-11-20T11:39:27;2.70;99.90
13598;DHT22;38563;54.258;12.574;2022-11-20T11:41:55;2.70;99.90
13598;DHT22;38563;54.258;12.574;2022-11-20T11:44:25;2.70;99.90
13598;DHT22;38563;54.258;12.574;2022-11-20T11:47:21;2.70;99.90
13598;DHT22;38563;54.258;12.574;2022-11-20T11:49:49;2.70;99.90
13598;DHT22;38563;54.258;12.574;2022-11-20T11:52:26;2.70;99.90
13598;DHT22;38563;54.258;12.574;2022-11-20T11:54:57;2.70;99.90
13598;DHT22;38563;54.258;12.574;2022-11-20T11:57:32;2.60;99.90
13598;DHT22;38563;54.258;12.574;2022-11-20T12:00:06;2.60;99.90
13598;DHT22;38563;54.258;12.574;2022-11-20T12:02:36;2.70;99.90
13598;DHT22;38563;54.258;12.574;2022-11-20T12:05:15;2.60;99.90
13598;DHT22;38563;54.258;12.574;2022-11-20T12:07:46;2.50;99.90
13598;DHT22;38563;54.258;12.574;2022-11-20T12:10:38;2.50;99.90
13598;DHT22;38563;54.258;12.574;2022-11-20T12:13:15;2.50;99.90
13598;DHT22;38563;54.258;12.574;2022-11-20T12:15:46;2.50;99.90
13598;DHT22;38563;54.258;12.574;2022-11-20T12:18:16;2.50;99.90
13598;DHT22;38563;54.258;12.574;2022-11-20T12:20:48;2.50;99.90
13598;DHT22;38563;54.258;12.574;2022-11-20T12:23:24;2.40;99.90
13598;DHT22;38563;54.258;12.574;2022-11-20T12:25:58;2.50;99.90
13598;DHT22;38563;54.258;12.574;2022-11-20T12:28:49;2.60;99.90
13598;DHT22;38563;54.258;12.574;2022-11-20T12:31:31;2.60;99.90
13598;DHT22;38563;54.258;12.574;2022-11-20T12:34:18;2.50;99.90
13598;DHT22;38563;54.258;12.574;2022-11-20T12:36:51;2.50;99.90
13598;DHT22;38563;54.258;12.574;2022-11-20T12:39:35;2.50;99.90
13598;DHT22;38563;54.258;12.574;2022-11-20T12:42:19;2.50;99.90
13598;DHT22;38563;54.258;12.574;2022-11-20T12:45:25;2.50;99.90
13598;DHT22;38563;54.258;12.574;2022-11-20T12:48:27;2.40;99.90
13598;DHT22;38563;54.258;12.574;2022-11-20T12:51:11;2.30;99.90
13598;DHT22;38563;54.258;12.574;2022-11-20T12:53:46;2.20;99.90
13598;DHT22;38563;54.258;12.574;2022-11-20T12:56:25;2.10;99.90
13598;DHT22;38563;54.258;12.574;2022-11-20T12:59:06;1.90;99.90
13598;DHT22;38563;54.258;12.574;2022-11-20T13:01:40;1.80;99.90
13598;DHT22;38563;54.258;12.574;2022-11-20T13:04:19;1.70;99.90
13598;DHT22;38563;54.258;12.574;2022-11-20T13:06:48;1.80;99.90
13598;DHT22;38563;54.258;12.574;2022-11-20T13:09:16;1.70;99.90
13598;DHT22;38563;54.258;12.574;2022-11-20T13:11:53;1.70;99.90
13598;DHT22;38563;54.258;12.574;2022-11-20T13:14:32;1.80;99.90
13598;DHT22;38563;54.258;12.574;2022-11-20T13:17:05;1.70;99.90
13598;DHT22;38563;54.258;12.574;2022-11-20T13:19:36;1.70;99.90
13598;DHT22;38563;54.258;12.574;2022-11-20T13:22:03;1.60;99.90
13598;DHT22;38563;54.258;12.574;2022-11-20T13:24:31;1.50;99.90
13598;DHT22;38563;54.258;12.574;2022-11-20T13:27:17;1.50;99.90
13598;DHT22;38563;54.258;12.574;2022-11-20T13:29:58;1.40;99.90
13598;DHT22;38563;54.258;12.574;2022-11-20T13:32:26;1.30;99.90
13598;DHT22;38563;54.258;12.574;2022-11-20T13:34:59;1.30;99.90
13598;DHT22;38563;54.258;12.574;2022-11-20T13:37:31;1.40;99.90
13598;DHT22;38563;54.258;12.574;2022-11-20T13:40:21;1.50;99.90
13598;DHT22;38563;54.258;12.574;2022-11-20T13:42:55;1.50;99.90
13598;DHT22;38563;54.258;12.574;2022-11-20T13:45:25;1.50;99.90
13598;DHT22;38563;54.258;12.574;2022-11-20T13:47:54;1.50;99.90
13598;DHT22;38563;54.258;12.574;2022-11-20T13:50:32;1.40;99.90
13598;DHT22;38563;54.258;12.574;2022-11-20T13:53:13;1.40;99.90
13598;DHT22;38563;54.258;12.574;2022-11-20T13:55:46;1.30;99.90
13598;DHT22;38563;54.258;12.574;2022-11-20T13:58:27;1.30;99.90
13598;DHT22;38563;54.258;12.574;2022-11-20T14:01:07;1.30;99.90
13598;DHT22;38563;54.258;12.574;2022-11-20T14:03:36;1.30;99.90
13598;DHT22;38563;54.258;12.574;2022-11-20T14:06:04;1.30;99.90
13598;DHT22;38563;54.258;12.574;2022-11-20T14:08:36;1.40;99.90
13598;DHT22;38563;54.258;12.574;2022-11-20T14:11:05;1.40;99.90
13598;DHT22;38563;54.258;12.574;2022-11-20T14:13:32;1.40;99.90
13598;DHT22;38563;54.258;12.574;2022-11-20T14:16:00;1.30;99.90
13598;DHT22;38563;54.258;12.574;2022-11-20T14:18:27;1.20;99.90
13598;DHT22;38563;54.258;12.574;2022-11-20T14:20:54;1.20;99.90
13598;DHT22;38563;54.258;12.574;2022-11-20T14:23:25;1.10;99.90
13598;DHT22;38563;54.258;12.574;2022-11-20T14:25:52;1.10;99.90
13598;DHT22;38563;54.258;12.574;2022-11-20T14:28:24;1.20;99.90
13598;DHT22;38563;54.258;12.574;2022-11-20T14:30:52;1.10;99.90
13598;DHT22;38563;54.258;12.574;2022-11-20T14:33:20;1.10;99.90
13598;DHT22;38563;54.258;12.574;2022-11-20T14:35:51;1.00;99.90
13598;DHT22;38563;54.258;12.574;2022-11-20T14:38:21;1.00;99.90
13598;DHT22;38563;54.258;12.574;2022-11-20T14:40:48;0.90;99.90
13598;DHT22;38563;54.258;12.574;2022-11-20T14:43:19;0.80;99.90
13598;DHT22;38563;54.258;12.574;2022-11-20T14:45:52;0.80;99.90
13598;DHT22;38563;54.258;12.574;2022-11-20T14:48:27;0.80;99.90
13598;DHT22;38563;54.258;12.574;2022-11-20T14:50:55;0.80;99.90
13598;DHT22;38563;54.258;12.574;2022-11-20T14:53:22;0.70;99.90
13598;DHT22;38563;54.258;12.574;2022-11-20T14:55:55;0.70;99.90
13598;DHT22;38563;54.258;12.574;2022-11-20T14:58:24;0.60;99.90
13598;DHT22;38563;54.258;12.574;2022-11-20T15:00:54;0.50;99.90
13598;DHT22;38563;54.258;12.574;2022-11-20T15:03:22;0.50;99.90
13598;DHT22;38563;54.258;12.574;2022-11-20T15:05:50;0.40;99.90
13598;DHT22;38563;54.258;12.574;2022-11-20T15:08:18;0.40;99.90
13598;DHT22;38563;54.258;12.574;2022-11-20T15:10:49;0.40;99.90
13598;DHT22;38563;54.258;12.574;2022-11-20T15:13:19;0.40;99.90
13598;DHT22;38563;54.258;12.574;2022-11-20T15:15:51;0.30;99.90
13598;DHT22;38563;54.258;12.574;2022-11-20T15:18:23;0.30;99.90
13598;DHT22;38563;54.258;12.574;2022-11-20T15:20:50;0.40;99.90
13598;DHT22;38563;54.258;12.574;2022-11-20T15:23:19;0.30;99.90
13598;DHT22;38563;54.258;12.574;2022-11-20T15:25:47;0.20;99.90
13598;DHT22;38563;54.258;12.574;2022-11-20T15:28:18;0.20;99.90
13598;DHT22;38563;54.258;12.574;2022-11-20T15:30:45;0.20;99.90
13598;DHT22;38563;54.258;12.574;2022-11-20T15:33:12;0.10;99.90
13598;DHT22;38563;54.258;12.574;2022-11-20T15:35:41;0.10;99.90
13598;DHT22;38563;54.258;12.574;2022-11-20T15:38:07;0.00;99.90
13598;DHT22;38563;54.258;12.574;2022-11-20T15:40:34;-0.10;99.90
13598;DHT22;38563;54.258;12.574;2022-11-20T15:43:01;-0.20;99.90
13598;DHT22;38563;54.258;12.574;2022-11-20T15:45:36;-0.30;99.90
13598;DHT22;38563;54.258;12.574;2022-11-20T15:48:04;-0.40;99.90
13598;DHT22;38563;54.258;12.574;2022-11-20T15:50:36;-0.40;99.90
13598;DHT22;38563;54.258;12.574;2022-11-20T15:53:05;-0.50;99.90